sensor_id;sensor_type;location;lat;lon;timestamp;P1;durP1;ratioP1;P2;durP2;ratioP2
52858;SDS011;38721;53.098;6.596;2023-10-09T00:00:50;9.20;;;5.05;;
52858;SDS011;38721;53.098;6.596;2023-10-09T00:03:19;13.55;;;5.50;;
52858;SDS011;38721;53.098;6.596;2023-10-09T00:05:48;10.77;;;5.40;;
52858;SDS011;38721;53.098;6.596;2023-10-09T00:08:17;11.27;;;5.38;;
52858;SDS011;38721;53.098;6.596;2023-10-09T00:10:55;10.27;;;5.32;;
52858;SDS011;38721;53.098;6.596;2023-10-09T00:13:24;14.32;;;5.60;;
52858;SDS011;38721;53.098;6.596;2023-10-09T00:15:58;11.68;;;5.30;;
52858;SDS011;38721;53.098;6.596;2023-10-09T00:18:38;11.63;;;5.68;;
52858;SDS011;38721;53.098;6.596;2023-10-09T00:21:04;10.75;;;5.05;;
52858;SDS011;38721;53.098;6.596;2023-10-09T00:23:37;11.20;;;5.53;;
52858;SDS011;38721;53.098;6.596;2023-10-09T00:26:04;11.75;;;5.28;;
52858;SDS011;38721;53.098;6.596;2023-10-09T00:28:41;11.15;;;5.57;;
52858;SDS011;38721;53.098;6.596;2023-10-09T00:31:12;15.82;;;5.80;;
52858;SDS011;38721;53.098;6.596;2023-10-09T00:33:44;14.05;;;6.03;;
52858;SDS011;38721;53.098;6.596;2023-10-09T00:36:10;11.52;;;5.97;;
52858;SDS011;38721;53.098;6.596;2023-10-09T00:38:39;10.82;;;5.65;;
52858;SDS011;38721;53.098;6.596;2023-10-09T00:41:09;10.88;;;5.25;;
52858;SDS011;38721;53.098;6.596;2023-10-09T00:43:35;14.20;;;5.70;;
52858;SDS011;38721;53.098;6.596;2023-10-09T00:46:03;11.65;;;5.95;;
52858;SDS011;38721;53.098;6.596;2023-10-09T00:48:56;12.20;;;6.03;;
52858;SDS011;38721;53.098;6.596;2023-10-09T00:51:27;13.15;;;6.45;;
52858;SDS011;38721;53.098;6.596;2023-10-09T00:53:59;14.77;;;6.60;;
52858;SDS011;38721;53.098;6.596;2023-10-09T00:56:32;11.77;;;6.28;;
52858;SDS011;38721;53.098;6.596;2023-10-09T00:59:07;14.85;;;6.82;;
52858;SDS011;38721;53.098;6.596;2023-10-09T01:01:34;13.82;;;6.53;;
52858;SDS011;38721;53.098;6.596;2023-10-09T01:04:01;12.68;;;7.22;;
52858;SDS011;38721;53.098;6.596;2023-10-09T01:06:32;17.58;;;7.45;;
52858;SDS011;38721;53.098;6.596;2023-10-09T01:08:59;20.02;;;8.70;;
52858;SDS011;38721;53.098;6.596;2023-10-09T01:11:40;16.45;;;7.70;;
52858;SDS011;38721;53.098;6.596;2023-10-09T01:14:14;13.27;;;7.50;;
52858;SDS011;38721;53.098;6.596;2023-10-09T01:16:40;15.65;;;8.20;;
52858;SDS011;38721;53.098;6.596;2023-10-09T01:19:12;20.15;;;8.05;;
52858;SDS011;38721;53.098;6.596;2023-10-09T01:21:52;14.52;;;8.23;;
52858;SDS011;38721;53.098;6.596;2023-10-09T01:24:19;15.18;;;7.80;;
52858;SDS011;38721;53.098;6.596;2023-10-09T01:26:45;16.30;;;7.90;;
52858;SDS011;38721;53.098;6.596;2023-10-09T01:29:13;17.40;;;8.48;;
52858;SDS011;38721;53.098;6.596;2023-10-09T01:31:42;21.58;;;9.90;;
52858;SDS011;38721;53.098;6.596;2023-10-09T01:34:41;22.02;;;9.27;;
52858;SDS011;38721;53.098;6.596;2023-10-09T01:37:11;22.23;;;9.43;;
52858;SDS011;38721;53.098;6.596;2023-10-09T01:39:47;18.88;;;9.80;;
52858;SDS011;38721;53.098;6.596;2023-10-09T01:42:14;20.27;;;10.38;;
52858;SDS011;38721;53.098;6.596;2023-10-09T01:44:57;25.35;;;10.50;;
52858;SDS011;38721;53.098;6.596;2023-10-09T01:47:41;22.80;;;11.15;;
52858;SDS011;38721;53.098;6.596;2023-10-09T01:50:16;25.48;;;11.55;;
52858;SDS011;38721;53.098;6.596;2023-10-09T01:52:49;22.95;;;12.20;;
52858;SDS011;38721;53.098;6.596;2023-10-09T01:55:19;24.50;;;11.30;;
52858;SDS011;38721;53.098;6.596;2023-10-09T01:58:14;21.95;;;11.65;;
52858;SDS011;38721;53.098;6.596;2023-10-09T02:00:46;26.13;;;12.70;;
52858;SDS011;38721;53.098;6.596;2023-10-09T02:03:22;23.38;;;11.90;;
52858;SDS011;38721;53.098;6.596;2023-10-09T02:05:52;26.92;;;13.23;;
52858;SDS011;38721;53.098;6.596;2023-10-09T02:08:28;25.92;;;12.02;;
52858;SDS011;38721;53.098;6.596;2023-10-09T02:10:55;27.10;;;13.20;;
52858;SDS011;38721;53.098;6.596;2023-10-09T02:13:24;22.88;;;12.02;;
52858;SDS011;38721;53.098;6.596;2023-10-09T02:15:59;28.45;;;13.88;;
52858;SDS011;38721;53.098;6.596;2023-10-09T02:18:40;27.92;;;13.75;;
52858;SDS011;38721;53.098;6.596;2023-10-09T02:21:18;23.65;;;12.32;;
52858;SDS011;38721;53.098;6.596;2023-10-09T02:24:05;25.63;;;12.75;;
52858;SDS011;38721;53.098;6.596;2023-10-09T02:26:51;26.25;;;13.45;;
52858;SDS011;38721;53.098;6.596;2023-10-09T02:29:16;25.13;;;12.55;;
52858;SDS011;38721;53.098;6.596;2023-10-09T02:31:42;28.35;;;13.93;;
52858;SDS011;38721;53.098;6.596;2023-10-09T02:34:16;23.88;;;13.00;;
52858;SDS011;38721;53.098;6.596;2023-10-09T02:36:46;24.35;;;13.75;;
52858;SDS011;38721;53.098;6.596;2023-10-09T02:39:22;32.13;;;14.38;;
52858;SDS011;38721;53.098;6.596;2023-10-09T02:41:55;25.08;;;13.80;;
52858;SDS011;38721;53.098;6.596;2023-10-09T02:44:44;28.60;;;14.70;;
52858;SDS011;38721;53.098;6.596;2023-10-09T02:47:15;25.38;;;13.48;;
52858;SDS011;38721;53.098;6.596;2023-10-09T02:49:55;29.85;;;14.13;;
52858;SDS011;38721;53.098;6.596;2023-10-09T02:52:31;28.02;;;15.02;;
52858;SDS011;38721;53.098;6.596;2023-10-09T02:55:05;24.48;;;14.43;;
52858;SDS011;38721;53.098;6.596;2023-10-09T02:57:37;29.13;;;15.25;;
52858;SDS011;38721;53.098;6.596;2023-10-09T03:00:07;27.42;;;15.30;;
52858;SDS011;38721;53.098;6.596;2023-10-09T03:02:43;30.75;;;15.65;;
52858;SDS011;38721;53.098;6.596;2023-10-09T03:05:11;28.20;;;15.38;;
52858;SDS011;38721;53.098;6.596;2023-10-09T03:07:38;32.88;;;16.08;;
52858;SDS011;38721;53.098;6.596;2023-10-09T03:10:07;29.45;;;15.48;;
52858;SDS011;38721;53.098;6.596;2023-10-09T03:12:35;34.08;;;16.30;;
52858;SDS011;38721;53.098;6.596;2023-10-09T03:15:01;36.40;;;16.58;;
52858;SDS011;38721;53.098;6.596;2023-10-09T03:17:27;29.80;;;15.40;;
52858;SDS011;38721;53.098;6.596;2023-10-09T03:19:53;34.85;;;17.25;;
52858;SDS011;38721;53.098;6.596;2023-10-09T03:22:19;34.08;;;17.05;;
52858;SDS011;38721;53.098;6.596;2023-10-09T03:24:45;33.50;;;16.85;;
52858;SDS011;38721;53.098;6.596;2023-10-09T03:27:11;34.30;;;17.67;;
52858;SDS011;38721;53.098;6.596;2023-10-09T03:29:39;34.38;;;16.85;;
52858;SDS011;38721;53.098;6.596;2023-10-09T03:32:05;36.22;;;18.35;;
52858;SDS011;38721;53.098;6.596;2023-10-09T03:34:32;34.97;;;19.17;;
52858;SDS011;38721;53.098;6.596;2023-10-09T03:36:57;34.20;;;19.73;;
52858;SDS011;38721;53.098;6.596;2023-10-09T03:39:30;39.17;;;19.30;;
52858;SDS011;38721;53.098;6.596;2023-10-09T03:42:06;40.95;;;20.67;;
52858;SDS011;38721;53.098;6.596;2023-10-09T03:44:37;45.50;;;21.30;;
52858;SDS011;38721;53.098;6.596;2023-10-09T03:47:09;39.10;;;19.98;;
52858;SDS011;38721;53.098;6.596;2023-10-09T03:49:36;39.40;;;20.98;;
52858;SDS011;38721;53.098;6.596;2023-10-09T03:52:04;44.03;;;21.77;;
52858;SDS011;38721;53.098;6.596;2023-10-09T03:54:32;40.25;;;22.17;;
52858;SDS011;38721;53.098;6.596;2023-10-09T03:57:00;44.10;;;21.65;;
52858;SDS011;38721;53.098;6.596;2023-10-09T03:59:26;40.45;;;21.67;;
52858;SDS011;38721;53.098;6.596;2023-10-09T04:01:55;47.38;;;22.27;;
52858;SDS011;38721;53.098;6.596;2023-10-09T04:04:23;45.40;;;22.67;;
52858;SDS011;38721;53.098;6.596;2023-10-09T04:06:53;43.78;;;21.90;;
52858;SDS011;38721;53.098;6.596;2023-10-09T04:09:20;40.28;;;21.23;;
52858;SDS011;38721;53.098;6.596;2023-10-09T04:14:22;39.72;;;21.23;;
52858;SDS011;38721;53.098;6.596;2023-10-09T04:17:01;42.40;;;22.83;;
52858;SDS011;38721;53.098;6.596;2023-10-09T04:19:31;42.15;;;23.83;;
52858;SDS011;38721;53.098;6.596;2023-10-09T04:22:13;45.95;;;22.13;;
52858;SDS011;38721;53.098;6.596;2023-10-09T04:24:51;40.53;;;21.48;;
52858;SDS011;38721;53.098;6.596;2023-10-09T04:27:17;43.83;;;22.40;;
52858;SDS011;38721;53.098;6.596;2023-10-09T04:29:51;41.33;;;22.67;;
52858;SDS011;38721;53.098;6.596;2023-10-09T04:32:19;38.80;;;21.38;;
52858;SDS011;38721;53.098;6.596;2023-10-09T04:34:50;44.30;;;21.60;;
52858;SDS011;38721;53.098;6.596;2023-10-09T04:37:22;41.28;;;20.13;;
52858;SDS011;38721;53.098;6.596;2023-10-09T04:40:04;31.83;;;19.40;;
52858;SDS011;38721;53.098;6.596;2023-10-09T04:42:37;44.17;;;21.25;;
52858;SDS011;38721;53.098;6.596;2023-10-09T04:45:06;36.30;;;20.25;;
52858;SDS011;38721;53.098;6.596;2023-10-09T04:47:33;35.90;;;20.58;;
52858;SDS011;38721;53.098;6.596;2023-10-09T04:50:20;41.92;;;21.98;;
52858;SDS011;38721;53.098;6.596;2023-10-09T04:52:55;36.13;;;19.75;;
52858;SDS011;38721;53.098;6.596;2023-10-09T04:55:20;40.03;;;20.38;;
52858;SDS011;38721;53.098;6.596;2023-10-09T04:57:50;40.80;;;21.33;;
52858;SDS011;38721;53.098;6.596;2023-10-09T05:00:38;40.30;;;21.38;;
52858;SDS011;38721;53.098;6.596;2023-10-09T05:03:07;37.95;;;20.65;;
52858;SDS011;38721;53.098;6.596;2023-10-09T05:05:37;37.50;;;19.33;;
52858;SDS011;38721;53.098;6.596;2023-10-09T05:08:14;37.10;;;20.40;;
52858;SDS011;38721;53.098;6.596;2023-10-09T05:10:56;37.42;;;19.95;;
52858;SDS011;38721;53.098;6.596;2023-10-09T05:13:26;40.42;;;20.13;;
52858;SDS011;38721;53.098;6.596;2023-10-09T05:16:13;37.97;;;20.20;;
52858;SDS011;38721;53.098;6.596;2023-10-09T05:18:50;37.95;;;19.83;;
52858;SDS011;38721;53.098;6.596;2023-10-09T05:21:53;35.80;;;20.85;;
52858;SDS011;38721;53.098;6.596;2023-10-09T05:24:23;36.20;;;19.55;;
52858;SDS011;38721;53.098;6.596;2023-10-09T05:26:49;41.15;;;19.42;;
52858;SDS011;38721;53.098;6.596;2023-10-09T05:29:19;37.97;;;18.50;;
52858;SDS011;38721;53.098;6.596;2023-10-09T05:32:01;33.45;;;19.80;;
52858;SDS011;38721;53.098;6.596;2023-10-09T05:34:33;35.05;;;19.45;;
52858;SDS011;38721;53.098;6.596;2023-10-09T05:37:02;34.33;;;18.05;;
52858;SDS011;38721;53.098;6.596;2023-10-09T05:39:50;29.95;;;17.30;;
52858;SDS011;38721;53.098;6.596;2023-10-09T05:42:29;31.08;;;16.98;;
52858;SDS011;38721;53.098;6.596;2023-10-09T05:45:05;33.47;;;17.38;;
52858;SDS011;38721;53.098;6.596;2023-10-09T05:50:22;35.10;;;17.02;;
52858;SDS011;38721;53.098;6.596;2023-10-09T05:52:48;26.45;;;15.48;;
52858;SDS011;38721;53.098;6.596;2023-10-09T05:55:18;31.77;;;15.20;;
52858;SDS011;38721;53.098;6.596;2023-10-09T05:57:55;28.33;;;13.85;;
52858;SDS011;38721;53.098;6.596;2023-10-09T06:00:40;27.55;;;14.75;;
52858;SDS011;38721;53.098;6.596;2023-10-09T06:03:24;27.13;;;13.73;;
52858;SDS011;38721;53.098;6.596;2023-10-09T06:06:12;29.30;;;13.05;;
52858;SDS011;38721;53.098;6.596;2023-10-09T06:08:58;20.70;;;12.38;;
52858;SDS011;38721;53.098;6.596;2023-10-09T06:11:39;21.60;;;11.98;;
52858;SDS011;38721;53.098;6.596;2023-10-09T06:14:06;23.30;;;11.75;;
52858;SDS011;38721;53.098;6.596;2023-10-09T06:16:35;19.85;;;11.05;;
52858;SDS011;38721;53.098;6.596;2023-10-09T06:19:13;27.75;;;11.05;;
52858;SDS011;38721;53.098;6.596;2023-10-09T06:21:45;22.50;;;11.30;;
52858;SDS011;38721;53.098;6.596;2023-10-09T06:24:18;20.58;;;11.05;;
52858;SDS011;38721;53.098;6.596;2023-10-09T06:27:06;20.67;;;9.98;;
52858;SDS011;38721;53.098;6.596;2023-10-09T06:29:32;21.17;;;10.00;;
52858;SDS011;38721;53.098;6.596;2023-10-09T06:32:02;22.20;;;10.73;;
52858;SDS011;38721;53.098;6.596;2023-10-09T06:34:58;23.15;;;10.48;;
52858;SDS011;38721;53.098;6.596;2023-10-09T06:37:45;16.55;;;8.88;;
52858;SDS011;38721;53.098;6.596;2023-10-09T06:40:27;18.13;;;9.05;;
52858;SDS011;38721;53.098;6.596;2023-10-09T06:43:02;23.35;;;9.68;;
52858;SDS011;38721;53.098;6.596;2023-10-09T06:45:46;18.88;;;9.30;;
52858;SDS011;38721;53.098;6.596;2023-10-09T06:48:35;24.50;;;9.50;;
52858;SDS011;38721;53.098;6.596;2023-10-09T06:51:04;17.33;;;8.30;;
52858;SDS011;38721;53.098;6.596;2023-10-09T06:53:48;21.45;;;9.02;;
52858;SDS011;38721;53.098;6.596;2023-10-09T06:56:23;19.40;;;8.95;;
52858;SDS011;38721;53.098;6.596;2023-10-09T06:58:56;18.30;;;8.50;;
52858;SDS011;38721;53.098;6.596;2023-10-09T07:01:23;20.45;;;9.20;;
52858;SDS011;38721;53.098;6.596;2023-10-09T07:03:56;19.15;;;9.70;;
52858;SDS011;38721;53.098;6.596;2023-10-09T07:06:35;17.60;;;8.32;;
52858;SDS011;38721;53.098;6.596;2023-10-09T07:09:01;18.50;;;8.85;;
52858;SDS011;38721;53.098;6.596;2023-10-09T07:11:33;15.05;;;8.00;;
52858;SDS011;38721;53.098;6.596;2023-10-09T07:14:19;18.67;;;8.10;;
52858;SDS011;38721;53.098;6.596;2023-10-09T07:17:17;22.75;;;8.70;;
52858;SDS011;38721;53.098;6.596;2023-10-09T07:19:58;16.15;;;7.68;;
52858;SDS011;38721;53.098;6.596;2023-10-09T07:22:41;19.55;;;8.13;;
52858;SDS011;38721;53.098;6.596;2023-10-09T07:25:18;17.98;;;7.88;;
52858;SDS011;38721;53.098;6.596;2023-10-09T07:28:03;21.00;;;8.23;;
52858;SDS011;38721;53.098;6.596;2023-10-09T07:30:44;21.27;;;8.98;;
52858;SDS011;38721;53.098;6.596;2023-10-09T07:33:11;16.67;;;7.90;;
52858;SDS011;38721;53.098;6.596;2023-10-09T07:35:41;18.42;;;8.27;;
52858;SDS011;38721;53.098;6.596;2023-10-09T07:38:25;25.13;;;8.43;;
52858;SDS011;38721;53.098;6.596;2023-10-09T07:41:00;22.13;;;8.82;;
52858;SDS011;38721;53.098;6.596;2023-10-09T07:43:33;20.70;;;8.85;;
52858;SDS011;38721;53.098;6.596;2023-10-09T07:46:09;17.92;;;8.15;;
52858;SDS011;38721;53.098;6.596;2023-10-09T07:49:04;17.00;;;8.55;;
52858;SDS011;38721;53.098;6.596;2023-10-09T07:51:34;19.75;;;8.70;;
52858;SDS011;38721;53.098;6.596;2023-10-09T07:54:01;16.65;;;8.90;;
52858;SDS011;38721;53.098;6.596;2023-10-09T07:56:34;16.52;;;9.48;;
52858;SDS011;38721;53.098;6.596;2023-10-09T07:59:18;18.23;;;8.68;;
52858;SDS011;38721;53.098;6.596;2023-10-09T08:01:47;15.13;;;8.90;;
52858;SDS011;38721;53.098;6.596;2023-10-09T08:04:27;17.50;;;8.65;;
52858;SDS011;38721;53.098;6.596;2023-10-09T08:07:08;15.90;;;8.77;;
52858;SDS011;38721;53.098;6.596;2023-10-09T08:09:37;20.10;;;8.70;;
52858;SDS011;38721;53.098;6.596;2023-10-09T08:12:27;18.70;;;8.45;;
52858;SDS011;38721;53.098;6.596;2023-10-09T08:15:22;21.75;;;8.77;;
52858;SDS011;38721;53.098;6.596;2023-10-09T08:20:27;23.13;;;10.13;;
52858;SDS011;38721;53.098;6.596;2023-10-09T08:23:01;19.48;;;8.70;;
52858;SDS011;38721;53.098;6.596;2023-10-09T08:25:30;18.65;;;9.13;;
52858;SDS011;38721;53.098;6.596;2023-10-09T08:28:01;17.50;;;9.13;;
52858;SDS011;38721;53.098;6.596;2023-10-09T08:30:39;20.73;;;9.63;;
52858;SDS011;38721;53.098;6.596;2023-10-09T08:33:15;22.20;;;9.38;;
52858;SDS011;38721;53.098;6.596;2023-10-09T08:35:50;14.38;;;8.43;;
52858;SDS011;38721;53.098;6.596;2023-10-09T08:38:20;17.45;;;8.45;;
52858;SDS011;38721;53.098;6.596;2023-10-09T08:40:49;14.10;;;8.45;;
52858;SDS011;38721;53.098;6.596;2023-10-09T08:43:16;24.40;;;8.65;;
52858;SDS011;38721;53.098;6.596;2023-10-09T08:45:47;23.23;;;9.10;;
52858;SDS011;38721;53.098;6.596;2023-10-09T08:48:18;19.00;;;8.30;;
52858;SDS011;38721;53.098;6.596;2023-10-09T08:50:50;16.65;;;8.25;;
52858;SDS011;38721;53.098;6.596;2023-10-09T08:53:16;16.75;;;8.35;;
52858;SDS011;38721;53.098;6.596;2023-10-09T08:55:42;14.90;;;7.93;;
52858;SDS011;38721;53.098;6.596;2023-10-09T08:58:09;15.98;;;8.00;;
52858;SDS011;38721;53.098;6.596;2023-10-09T09:00:46;16.00;;;7.90;;
52858;SDS011;38721;53.098;6.596;2023-10-09T09:03:16;22.98;;;10.15;;
52858;SDS011;38721;53.098;6.596;2023-10-09T09:05:46;15.38;;;8.23;;
52858;SDS011;38721;53.098;6.596;2023-10-09T09:08:23;17.10;;;7.97;;
52858;SDS011;38721;53.098;6.596;2023-10-09T09:10:57;14.68;;;7.70;;
52858;SDS011;38721;53.098;6.596;2023-10-09T09:13:39;15.50;;;6.90;;
52858;SDS011;38721;53.098;6.596;2023-10-09T09:16:20;14.27;;;5.93;;
52858;SDS011;38721;53.098;6.596;2023-10-09T09:18:51;15.77;;;5.60;;
52858;SDS011;38721;53.098;6.596;2023-10-09T09:21:36;15.95;;;6.72;;
52858;SDS011;38721;53.098;6.596;2023-10-09T09:24:08;13.68;;;6.15;;
52858;SDS011;38721;53.098;6.596;2023-10-09T09:26:56;12.00;;;6.32;;
52858;SDS011;38721;53.098;6.596;2023-10-09T09:32:07;11.88;;;6.05;;
52858;SDS011;38721;53.098;6.596;2023-10-09T09:37:21;20.33;;;6.95;;
52858;SDS011;38721;53.098;6.596;2023-10-09T09:39:54;16.02;;;6.38;;
52858;SDS011;38721;53.098;6.596;2023-10-09T09:42:25;11.23;;;6.15;;
52858;SDS011;38721;53.098;6.596;2023-10-09T09:44:53;17.02;;;6.03;;
52858;SDS011;38721;53.098;6.596;2023-10-09T09:47:20;15.52;;;6.07;;
52858;SDS011;38721;53.098;6.596;2023-10-09T09:49:52;12.15;;;5.82;;
52858;SDS011;38721;53.098;6.596;2023-10-09T09:52:25;13.05;;;5.95;;
52858;SDS011;38721;53.098;6.596;2023-10-09T09:55:18;13.05;;;5.60;;
52858;SDS011;38721;53.098;6.596;2023-10-09T09:57:47;10.88;;;5.70;;
52858;SDS011;38721;53.098;6.596;2023-10-09T10:00:21;15.27;;;5.22;;
52858;SDS011;38721;53.098;6.596;2023-10-09T10:03:50;11.93;;;6.05;;
52858;SDS011;38721;53.098;6.596;2023-10-09T10:05:59;10.93;;;6.07;;
52858;SDS011;38721;53.098;6.596;2023-10-09T10:08:30;12.55;;;5.55;;
52858;SDS011;38721;53.098;6.596;2023-10-09T10:10:58;11.73;;;5.47;;
52858;SDS011;38721;53.098;6.596;2023-10-09T10:16:12;11.02;;;5.30;;
52858;SDS011;38721;53.098;6.596;2023-10-09T10:21:46;14.55;;;5.07;;
52858;SDS011;38721;53.098;6.596;2023-10-09T10:27:14;16.17;;;6.20;;
52858;SDS011;38721;53.098;6.596;2023-10-09T10:32:56;9.95;;;5.10;;
52858;SDS011;38721;53.098;6.596;2023-10-09T10:35:35;10.40;;;5.43;;
52858;SDS011;38721;53.098;6.596;2023-10-09T10:38:33;10.38;;;5.18;;
52858;SDS011;38721;53.098;6.596;2023-10-09T10:43:44;13.80;;;4.53;;
52858;SDS011;38721;53.098;6.596;2023-10-09T10:46:33;12.45;;;4.43;;
52858;SDS011;38721;53.098;6.596;2023-10-09T10:49:09;12.63;;;4.95;;
52858;SDS011;38721;53.098;6.596;2023-10-09T10:51:41;10.52;;;4.40;;
52858;SDS011;38721;53.098;6.596;2023-10-09T10:54:19;8.50;;;4.65;;
52858;SDS011;38721;53.098;6.596;2023-10-09T10:56:58;15.63;;;4.55;;
52858;SDS011;38721;53.098;6.596;2023-10-09T10:59:25;16.33;;;4.90;;
52858;SDS011;38721;53.098;6.596;2023-10-09T11:02:09;11.45;;;4.60;;
52858;SDS011;38721;53.098;6.596;2023-10-09T11:04:35;11.75;;;4.70;;
52858;SDS011;38721;53.098;6.596;2023-10-09T11:07:02;13.15;;;5.25;;
52858;SDS011;38721;53.098;6.596;2023-10-09T11:09:47;16.55;;;5.05;;
52858;SDS011;38721;53.098;6.596;2023-10-09T11:12:23;15.23;;;4.63;;
52858;SDS011;38721;53.098;6.596;2023-10-09T11:15:03;12.18;;;5.85;;
52858;SDS011;38721;53.098;6.596;2023-10-09T11:17:32;16.88;;;5.00;;
52858;SDS011;38721;53.098;6.596;2023-10-09T11:20:00;15.75;;;5.70;;
52858;SDS011;38721;53.098;6.596;2023-10-09T11:22:51;13.15;;;6.18;;
52858;SDS011;38721;53.098;6.596;2023-10-09T11:25:35;12.32;;;4.72;;
52858;SDS011;38721;53.098;6.596;2023-10-09T11:28:16;17.70;;;5.57;;
52858;SDS011;38721;53.098;6.596;2023-10-09T11:31:13;22.58;;;5.07;;
52858;SDS011;38721;53.098;6.596;2023-10-09T11:33:51;11.48;;;5.32;;
52858;SDS011;38721;53.098;6.596;2023-10-09T11:36:19;12.23;;;4.10;;
52858;SDS011;38721;53.098;6.596;2023-10-09T11:39:00;15.82;;;4.25;;
52858;SDS011;38721;53.098;6.596;2023-10-09T11:41:39;13.65;;;4.57;;
52858;SDS011;38721;53.098;6.596;2023-10-09T11:44:11;11.32;;;3.88;;
52858;SDS011;38721;53.098;6.596;2023-10-09T11:49:23;10.02;;;3.92;;
52858;SDS011;38721;53.098;6.596;2023-10-09T11:52:09;13.18;;;5.15;;
52858;SDS011;38721;53.098;6.596;2023-10-09T11:54:54;12.35;;;3.67;;
52858;SDS011;38721;53.098;6.596;2023-10-09T11:57:21;14.18;;;3.85;;
52858;SDS011;38721;53.098;6.596;2023-10-09T11:59:56;9.43;;;3.72;;
52858;SDS011;38721;53.098;6.596;2023-10-09T12:02:23;9.45;;;3.25;;
52858;SDS011;38721;53.098;6.596;2023-10-09T12:04:48;7.55;;;3.28;;
52858;SDS011;38721;53.098;6.596;2023-10-09T12:07:14;6.18;;;2.60;;
52858;SDS011;38721;53.098;6.596;2023-10-09T12:09:40;6.20;;;2.85;;
52858;SDS011;38721;53.098;6.596;2023-10-09T12:12:06;7.90;;;2.45;;
52858;SDS011;38721;53.098;6.596;2023-10-09T12:14:36;6.63;;;2.90;;
52858;SDS011;38721;53.098;6.596;2023-10-09T12:17:05;7.85;;;2.80;;
52858;SDS011;38721;53.098;6.596;2023-10-09T12:19:33;8.77;;;2.95;;
52858;SDS011;38721;53.098;6.596;2023-10-09T12:22:03;10.80;;;2.97;;
52858;SDS011;38721;53.098;6.596;2023-10-09T12:24:31;5.80;;;2.83;;
52858;SDS011;38721;53.098;6.596;2023-10-09T12:27:01;5.90;;;2.38;;
52858;SDS011;38721;53.098;6.596;2023-10-09T12:29:26;13.38;;;3.17;;
52858;SDS011;38721;53.098;6.596;2023-10-09T12:31:58;8.10;;;3.00;;
52858;SDS011;38721;53.098;6.596;2023-10-09T12:34:25;6.35;;;2.50;;
52858;SDS011;38721;53.098;6.596;2023-10-09T12:36:54;7.07;;;2.53;;
52858;SDS011;38721;53.098;6.596;2023-10-09T12:39:20;12.25;;;3.33;;
52858;SDS011;38721;53.098;6.596;2023-10-09T12:41:47;9.75;;;2.80;;
52858;SDS011;38721;53.098;6.596;2023-10-09T12:44:14;9.85;;;2.90;;
52858;SDS011;38721;53.098;6.596;2023-10-09T12:46:43;8.43;;;2.80;;
52858;SDS011;38721;53.098;6.596;2023-10-09T12:49:18;5.75;;;2.65;;
52858;SDS011;38721;53.098;6.596;2023-10-09T12:51:44;8.15;;;2.40;;
52858;SDS011;38721;53.098;6.596;2023-10-09T12:54:10;7.78;;;2.50;;
52858;SDS011;38721;53.098;6.596;2023-10-09T12:56:42;5.10;;;2.25;;
52858;SDS011;38721;53.098;6.596;2023-10-09T12:59:14;10.80;;;2.53;;
52858;SDS011;38721;53.098;6.596;2023-10-09T13:01:40;6.53;;;2.53;;
52858;SDS011;38721;53.098;6.596;2023-10-09T13:04:13;7.15;;;2.10;;
52858;SDS011;38721;53.098;6.596;2023-10-09T13:06:43;3.75;;;1.77;;
52858;SDS011;38721;53.098;6.596;2023-10-09T13:09:12;5.85;;;2.00;;
52858;SDS011;38721;53.098;6.596;2023-10-09T13:11:41;5.65;;;2.17;;
52858;SDS011;38721;53.098;6.596;2023-10-09T13:14:07;10.40;;;2.08;;
52858;SDS011;38721;53.098;6.596;2023-10-09T13:16:46;6.05;;;2.10;;
52858;SDS011;38721;53.098;6.596;2023-10-09T13:19:15;5.50;;;1.77;;
52858;SDS011;38721;53.098;6.596;2023-10-09T13:21:42;6.38;;;1.80;;
52858;SDS011;38721;53.098;6.596;2023-10-09T13:24:09;6.07;;;1.67;;
52858;SDS011;38721;53.098;6.596;2023-10-09T13:26:49;8.98;;;1.90;;
52858;SDS011;38721;53.098;6.596;2023-10-09T13:29:17;4.03;;;1.58;;
52858;SDS011;38721;53.098;6.596;2023-10-09T13:31:48;4.70;;;1.88;;
52858;SDS011;38721;53.098;6.596;2023-10-09T13:34:16;6.80;;;1.55;;
52858;SDS011;38721;53.098;6.596;2023-10-09T13:36:42;6.28;;;1.77;;
52858;SDS011;38721;53.098;6.596;2023-10-09T13:39:28;6.20;;;1.75;;
52858;SDS011;38721;53.098;6.596;2023-10-09T13:41:59;3.50;;;1.52;;
52858;SDS011;38721;53.098;6.596;2023-10-09T13:44:32;7.05;;;2.13;;
52858;SDS011;38721;53.098;6.596;2023-10-09T13:47:00;6.93;;;1.90;;
52858;SDS011;38721;53.098;6.596;2023-10-09T13:49:30;5.97;;;2.00;;
52858;SDS011;38721;53.098;6.596;2023-10-09T13:51:57;5.93;;;2.50;;
52858;SDS011;38721;53.098;6.596;2023-10-09T13:54:25;5.07;;;2.03;;
52858;SDS011;38721;53.098;6.596;2023-10-09T13:56:57;6.40;;;2.45;;
52858;SDS011;38721;53.098;6.596;2023-10-09T13:59:29;7.55;;;2.15;;
52858;SDS011;38721;53.098;6.596;2023-10-09T14:01:55;7.95;;;2.70;;
52858;SDS011;38721;53.098;6.596;2023-10-09T14:04:25;5.28;;;2.03;;
52858;SDS011;38721;53.098;6.596;2023-10-09T14:06:53;8.45;;;2.08;;
52858;SDS011;38721;53.098;6.596;2023-10-09T14:09:25;3.50;;;1.80;;
52858;SDS011;38721;53.098;6.596;2023-10-09T14:12:09;6.72;;;2.13;;
52858;SDS011;38721;53.098;6.596;2023-10-09T14:14:40;5.07;;;1.90;;
52858;SDS011;38721;53.098;6.596;2023-10-09T14:17:15;6.00;;;2.20;;
52858;SDS011;38721;53.098;6.596;2023-10-09T14:19:49;4.45;;;2.13;;
52858;SDS011;38721;53.098;6.596;2023-10-09T14:22:46;5.68;;;2.20;;
52858;SDS011;38721;53.098;6.596;2023-10-09T14:25:17;4.97;;;2.35;;
52858;SDS011;38721;53.098;6.596;2023-10-09T14:27:46;8.50;;;2.50;;
52858;SDS011;38721;53.098;6.596;2023-10-09T14:30:13;3.53;;;2.33;;
52858;SDS011;38721;53.098;6.596;2023-10-09T14:32:48;6.85;;;2.50;;
52858;SDS011;38721;53.098;6.596;2023-10-09T14:35:20;4.72;;;2.15;;
52858;SDS011;38721;53.098;6.596;2023-10-09T14:37:51;4.10;;;2.42;;
52858;SDS011;38721;53.098;6.596;2023-10-09T14:40:21;3.97;;;2.00;;
52858;SDS011;38721;53.098;6.596;2023-10-09T14:42:55;6.82;;;2.42;;
52858;SDS011;38721;53.098;6.596;2023-10-09T14:45:26;4.70;;;2.55;;
52858;SDS011;38721;53.098;6.596;2023-10-09T14:47:55;5.78;;;2.13;;
52858;SDS011;38721;53.098;6.596;2023-10-09T14:50:21;5.78;;;2.40;;
52858;SDS011;38721;53.098;6.596;2023-10-09T14:52:47;4.28;;;2.40;;
52858;SDS011;38721;53.098;6.596;2023-10-09T14:58:35;4.35;;;2.08;;
52858;SDS011;38721;53.098;6.596;2023-10-09T15:01:08;4.93;;;2.05;;
52858;SDS011;38721;53.098;6.596;2023-10-09T15:03:40;8.07;;;2.47;;
52858;SDS011;38721;53.098;6.596;2023-10-09T15:06:07;3.97;;;1.77;;
52858;SDS011;38721;53.098;6.596;2023-10-09T15:08:36;5.70;;;2.00;;
52858;SDS011;38721;53.098;6.596;2023-10-09T15:11:02;6.07;;;1.92;;
52858;SDS011;38721;53.098;6.596;2023-10-09T15:13:27;4.35;;;2.00;;
52858;SDS011;38721;53.098;6.596;2023-10-09T15:15:54;3.63;;;1.90;;
52858;SDS011;38721;53.098;6.596;2023-10-09T15:18:21;6.05;;;2.10;;
52858;SDS011;38721;53.098;6.596;2023-10-09T15:20:50;3.85;;;1.85;;
52858;SDS011;38721;53.098;6.596;2023-10-09T15:23:17;4.85;;;2.10;;
52858;SDS011;38721;53.098;6.596;2023-10-09T15:25:45;10.45;;;4.30;;
52858;SDS011;38721;53.098;6.596;2023-10-09T15:28:15;4.78;;;2.17;;
52858;SDS011;38721;53.098;6.596;2023-10-09T15:30:41;3.70;;;1.80;;
52858;SDS011;38721;53.098;6.596;2023-10-09T15:33:07;6.78;;;2.15;;
52858;SDS011;38721;53.098;6.596;2023-10-09T15:35:36;5.40;;;1.90;;
52858;SDS011;38721;53.098;6.596;2023-10-09T15:38:05;6.68;;;1.95;;
52858;SDS011;38721;53.098;6.596;2023-10-09T15:40:30;3.58;;;1.55;;
52858;SDS011;38721;53.098;6.596;2023-10-09T15:43:01;5.07;;;2.00;;